createdAt,value
2022-10-15T00:02:33.434Z,94287.22
2022-10-15T00:05:41.651Z,94282.81
2022-10-15T00:08:46.724Z,94283.53
2022-10-15T00:11:50.667Z,94287.53
2022-10-15T00:14:53.568Z,94281.72
2022-10-15T00:17:57.553Z,94300.81
2022-10-15T00:21:01.689Z,94292.91
2022-10-15T00:24:05.830Z,94300.38
2022-10-15T00:27:08.717Z,94297.69
2022-10-15T00:30:12.941Z,94298.78
2022-10-15T00:33:17.620Z,94310.50
2022-10-15T00:36:26.223Z,94306.88
2022-10-15T00:39:30.752Z,94312.41
2022-10-15T00:42:34.087Z,94305.94
2022-10-15T00:45:38.110Z,94297.31
2022-10-15T00:48:41.728Z,94308.34
2022-10-15T00:51:50.449Z,94295.38
2022-10-15T00:55:00.605Z,94289.09
2022-10-15T01:01:22.254Z,94290.84
2022-10-15T01:04:25.775Z,94293.97
2022-10-15T01:07:29.894Z,94294.38
2022-10-15T01:10:57.161Z,94299.16
2022-10-15T01:14:44.160Z,94299.75
2022-10-15T01:18:08.892Z,94286.72
2022-10-15T01:21:22.783Z,94287.72
2022-10-15T01:24:47.123Z,94295.28
2022-10-15T01:28:05.767Z,94286.88
2022-10-15T01:31:33.352Z,94287.34
2022-10-15T01:34:54.712Z,94279.63
2022-10-15T01:38:06.143Z,94290.84
2022-10-15T01:41:21.335Z,94283.19
2022-10-15T01:44:34.937Z,94294.25
2022-10-15T01:48:05.111Z,94288.84
2022-10-15T01:51:11.520Z,94279.22
2022-10-15T01:54:18.955Z,94282.69
2022-10-15T01:57:26.388Z,94290.91
2022-10-15T02:00:30.687Z,94270.84
2022-10-15T02:03:49.990Z,94264.50
2022-10-15T02:07:21.053Z,94262.44
2022-10-15T02:10:29.839Z,94257.72
2022-10-15T02:14:01.174Z,94257.75
2022-10-15T02:17:10.847Z,94264.31
2022-10-15T02:20:25.487Z,94268.34
2022-10-15T02:23:39.490Z,94266.34
2022-10-15T02:26:44.706Z,94261.53
2022-10-15T02:29:53.283Z,94249.34
2022-10-15T02:33:00.256Z,94268.34
2022-10-15T02:36:04.521Z,94259.72
2022-10-15T02:39:18.924Z,94251.41
2022-10-15T02:42:23.896Z,94256.97
2022-10-15T02:45:28.191Z,94251.91
2022-10-15T02:48:32.006Z,94256.75
2022-10-15T02:51:36.995Z,94248.78
2022-10-15T02:54:40.723Z,94240.06
2022-10-15T02:57:44.903Z,94253.09
2022-10-15T03:00:49.602Z,94257.91
2022-10-15T03:03:54.624Z,94249.25
2022-10-15T03:06:58.704Z,94245.44
2022-10-15T03:10:03.366Z,94247.94
2022-10-15T03:13:08.196Z,94247.88
2022-10-15T03:16:20.905Z,94257.00
2022-10-15T03:19:24.533Z,94243.75
2022-10-15T03:22:30.595Z,94240.31
2022-10-15T03:25:34.071Z,94247.81
2022-10-15T03:28:40.628Z,94258.25
2022-10-15T03:31:43.665Z,94246.66
2022-10-15T03:34:47.434Z,94245.00
2022-10-15T03:37:53.262Z,94244.31
2022-10-15T03:40:57.278Z,94249.41
2022-10-15T03:44:12.326Z,94242.59
2022-10-15T03:47:20.704Z,94250.44
2022-10-15T03:50:25.960Z,94241.91
2022-10-15T03:53:29.531Z,94234.88
2022-10-15T03:56:33.439Z,94239.69
2022-10-15T03:59:54.216Z,94244.38
2022-10-15T04:02:59.504Z,94243.50
2022-10-15T04:06:04.455Z,94237.22
2022-10-15T04:09:09.231Z,94241.66
2022-10-15T04:12:12.821Z,94226.19
2022-10-15T04:15:16.539Z,94233.25
2022-10-15T04:18:32.054Z,94227.31
2022-10-15T04:21:35.500Z,94243.56
2022-10-15T04:24:41.134Z,94234.72
2022-10-15T04:27:44.142Z,94231.34
2022-10-15T04:30:52.060Z,94242.06
2022-10-15T04:33:57.509Z,94223.28
2022-10-15T04:37:02.682Z,94235.19
2022-10-15T04:40:06.525Z,94231.22
2022-10-15T04:43:10.342Z,94220.38
2022-10-15T04:46:14.988Z,94204.47
2022-10-15T04:49:18.987Z,94217.66
2022-10-15T04:52:23.497Z,94218.66
2022-10-15T04:55:33.232Z,94213.25
2022-10-15T04:58:38.359Z,94215.22
2022-10-15T05:01:42.440Z,94210.13
2022-10-15T05:04:46.317Z,94212.97
2022-10-15T05:07:50.328Z,94202.16
2022-10-15T05:10:54.294Z,94212.50
2022-10-15T05:13:58.591Z,94201.84
2022-10-15T05:17:02.852Z,94207.28
2022-10-15T05:20:12.014Z,94215.41
2022-10-15T05:23:16.013Z,94215.53
2022-10-15T05:26:30.051Z,94209.81
2022-10-15T05:29:34.206Z,94204.03
2022-10-15T05:32:38.353Z,94200.88
2022-10-15T05:35:46.523Z,94215.44
2022-10-15T05:38:59.663Z,94198.75
2022-10-15T05:42:02.731Z,94201.66
2022-10-15T05:45:16.827Z,94214.66
2022-10-15T05:48:19.727Z,94207.31
2022-10-15T05:51:24.410Z,94206.28
2022-10-15T05:54:30.898Z,94196.66
2022-10-15T05:57:33.696Z,94211.47
2022-10-15T06:00:40.531Z,94214.84
2022-10-15T06:03:44.715Z,94187.53
2022-10-15T06:06:48.351Z,94201.53
2022-10-15T06:09:51.305Z,94219.66
2022-10-15T06:12:54.773Z,94214.41
2022-10-15T06:15:57.659Z,94211.94
2022-10-15T06:19:01.310Z,94214.09
2022-10-15T06:22:04.937Z,94225.13
2022-10-15T06:25:09.094Z,94209.66
2022-10-15T06:28:12.222Z,94221.09
2022-10-15T06:31:18.278Z,94214.44
2022-10-15T06:34:21.213Z,94219.59
2022-10-15T06:37:25.271Z,94215.53
2022-10-15T06:40:31.508Z,94218.13
2022-10-15T06:43:36.178Z,94228.28
2022-10-15T06:46:39.705Z,94225.13
2022-10-15T06:49:43.218Z,94235.06
2022-10-15T06:52:46.174Z,94234.41
2022-10-15T06:55:49.782Z,94227.63
2022-10-15T06:58:52.569Z,94235.56
2022-10-15T07:01:56.115Z,94222.66
2022-10-15T07:04:59.720Z,94236.56
2022-10-15T07:08:03.372Z,94235.00
2022-10-15T07:11:09.805Z,94234.81
2022-10-15T07:14:13.623Z,94244.50
2022-10-15T07:17:17.341Z,94246.47
2022-10-15T07:20:23.582Z,94258.84
2022-10-15T07:23:28.354Z,94253.59
2022-10-15T07:26:32.231Z,94250.78
2022-10-15T07:29:38.102Z,94253.50
2022-10-15T07:32:44.440Z,94257.56
2022-10-15T07:35:50.022Z,94267.28
2022-10-15T07:38:54.243Z,94266.09
2022-10-15T07:41:57.372Z,94254.78
2022-10-15T07:45:01.429Z,94259.13
2022-10-15T07:48:05.354Z,94264.41
2022-10-15T07:51:09.420Z,94263.59
2022-10-15T07:54:13.154Z,94267.22
2022-10-15T07:57:18.401Z,94264.34
2022-10-15T08:00:23.781Z,94269.00
2022-10-15T08:03:28.036Z,94267.91
2022-10-15T08:06:33.257Z,94269.44
2022-10-15T08:09:36.907Z,94280.34
2022-10-15T08:12:40.761Z,94281.09
2022-10-15T08:15:44.605Z,94288.91
2022-10-15T08:18:48.264Z,94288.28
2022-10-15T08:21:52.132Z,94302.69
2022-10-15T08:24:55.753Z,94294.50
2022-10-15T08:28:00.663Z,94310.50
2022-10-15T08:31:05.960Z,94306.72
2022-10-15T08:34:10.544Z,94305.53
2022-10-15T08:40:23.825Z,94320.56
2022-10-15T08:43:48.423Z,94319.66
2022-10-15T08:47:19.413Z,94324.59
2022-10-15T08:50:42.931Z,94328.41
2022-10-15T08:53:54.768Z,94328.94
2022-10-15T08:57:18.367Z,94343.34
2022-10-15T09:00:28.801Z,94331.72
2022-10-15T09:03:50.088Z,94332.25
2022-10-15T09:07:04.509Z,94337.81
2022-10-15T09:10:28.131Z,94346.53
2022-10-15T09:13:41.364Z,94345.25
2022-10-15T09:16:49.214Z,94350.78
2022-10-15T09:19:58.007Z,94347.88
2022-10-15T09:23:01.912Z,94356.06
2022-10-15T09:26:31.693Z,94355.38
2022-10-15T09:29:44.589Z,94355.44
2022-10-15T09:33:09.294Z,94371.31
2022-10-15T09:36:30.947Z,94366.53
2022-10-15T09:39:40.483Z,94379.13
2022-10-15T09:42:45.484Z,94372.59
2022-10-15T09:45:50.123Z,94379.28
2022-10-15T09:49:04.597Z,94383.34
2022-10-15T09:52:12.509Z,94381.16
2022-10-15T09:55:31.996Z,94394.34
2022-10-15T09:58:44.812Z,94394.75
2022-10-15T10:02:03.088Z,94399.13
2022-10-15T10:05:33.060Z,94418.22
2022-10-15T10:08:42.292Z,94420.09
2022-10-15T10:11:52.634Z,94411.31
2022-10-15T10:15:19.623Z,94429.28
2022-10-15T10:18:25.982Z,94421.56
2022-10-15T10:21:35.833Z,94428.97
2022-10-15T10:24:39.705Z,94430.81
2022-10-15T10:27:46.504Z,94433.75
2022-10-15T10:30:52.421Z,94433.41
2022-10-15T10:33:56.617Z,94440.09
2022-10-15T10:37:04.987Z,94438.63
2022-10-15T10:40:27.920Z,94451.84
2022-10-15T10:43:38.987Z,94448.94
2022-10-15T10:46:42.559Z,94456.25
2022-10-15T10:49:54.675Z,94449.66
2022-10-15T10:53:00.586Z,94457.75
2022-10-15T10:56:11.324Z,94467.31
2022-10-15T10:59:20.755Z,94472.81
2022-10-15T11:02:25.596Z,94471.03
2022-10-15T11:05:33.780Z,94472.88
2022-10-15T11:09:26.403Z,94470.31
2022-10-15T11:12:40.885Z,94480.56
2022-10-15T11:15:44.131Z,94474.00
2022-10-15T11:19:43.940Z,94479.84
2022-10-15T11:22:53.225Z,94487.25
2022-10-15T11:26:26.585Z,94483.25
2022-10-15T11:29:51.158Z,94489.09
2022-10-15T11:33:23.702Z,94484.72
2022-10-15T11:36:42.231Z,94481.44
2022-10-15T11:40:14.412Z,94491.00
2022-10-15T11:43:35.943Z,94484.38
2022-10-15T11:46:44.226Z,94487.72
2022-10-15T11:50:08.288Z,94501.63
2022-10-15T11:53:38.213Z,94497.59
2022-10-15T11:56:46.926Z,94496.16
2022-10-15T11:59:59.298Z,94507.53
2022-10-15T12:03:28.020Z,94506.81
2022-10-15T12:06:37.787Z,94511.91
2022-10-15T12:09:45.275Z,94510.06
2022-10-15T12:13:11.437Z,94507.19
2022-10-15T12:16:42.574Z,94514.88
2022-10-15T12:19:54.834Z,94515.25
2022-10-15T12:23:01.579Z,94511.63
2022-10-15T12:26:25.193Z,94508.69
2022-10-15T12:29:29.548Z,94508.41
2022-10-15T12:32:40.552Z,94507.66
2022-10-15T12:35:43.712Z,94514.25
2022-10-15T12:39:40.303Z,94523.78
2022-10-15T12:42:51.336Z,94519.75
2022-10-15T12:45:59.217Z,94522.72
2022-10-15T12:49:43.817Z,94531.13
2022-10-15T12:52:50.659Z,94529.69
2022-10-15T12:56:12.442Z,94531.16
2022-10-15T12:59:34.036Z,94534.09
2022-10-15T13:05:54.272Z,94532.66
2022-10-15T13:09:13.185Z,94543.25
2022-10-15T13:12:27.977Z,94542.88
2022-10-15T13:15:33.723Z,94550.63
2022-10-15T13:18:37.751Z,94550.25
2022-10-15T13:21:58.600Z,94556.09
2022-10-15T13:25:05.501Z,94557.91
2022-10-15T13:28:48.831Z,94556.44
2022-10-15T13:31:54.183Z,94566.69
2022-10-15T13:34:58.124Z,94553.16
2022-10-15T13:38:01.996Z,94560.47
2022-10-15T13:41:05.032Z,94559.34
2022-10-15T13:44:22.347Z,94562.28
2022-10-15T13:47:37.668Z,94567.78
2022-10-15T13:50:41.156Z,94562.63
2022-10-15T13:53:44.863Z,94557.53
2022-10-15T13:56:56.358Z,94564.47
2022-10-15T13:59:59.673Z,94567.75
2022-10-15T14:03:10.787Z,94565.53
2022-10-15T14:06:37.142Z,94560.81
2022-10-15T14:09:41.441Z,94565.91
2022-10-15T14:12:44.749Z,94560.41
2022-10-15T14:15:51.466Z,94562.97
2022-10-15T14:19:07.594Z,94568.47
2022-10-15T14:22:18.889Z,94563.34
2022-10-15T14:25:26.062Z,94573.59
2022-10-15T14:28:32.426Z,94565.91
2022-10-15T14:31:42.031Z,94575.03
2022-10-15T14:34:45.027Z,94585.25
2022-10-15T14:37:49.049Z,94576.84
2022-10-15T14:41:07.153Z,94576.81
2022-10-15T14:44:14.237Z,94579.72
2022-10-15T14:47:26.842Z,94584.13
2022-10-15T14:50:33.464Z,94580.81
2022-10-15T14:53:40.155Z,94588.50
2022-10-15T14:56:43.165Z,94585.25
2022-10-15T14:59:46.027Z,94592.16
2022-10-15T15:02:49.811Z,94585.94
2022-10-15T15:05:55.320Z,94589.97
2022-10-15T15:08:58.320Z,94589.25
2022-10-15T15:12:01.826Z,94590.69
2022-10-15T15:15:13.386Z,94590.34
2022-10-15T15:18:16.946Z,94594.00
2022-10-15T15:21:24.101Z,94603.47
2022-10-15T15:24:27.342Z,94598.72
2022-10-15T15:27:37.635Z,94610.03
2022-10-15T15:30:43.597Z,94607.09
2022-10-15T15:33:46.981Z,94614.00
2022-10-15T15:36:52.735Z,94613.63
2022-10-15T15:39:56.801Z,94618.38
2022-10-15T15:43:00.610Z,94617.25
2022-10-15T15:46:04.183Z,94621.28
2022-10-15T15:49:07.789Z,94622.75
2022-10-15T15:52:19.714Z,94625.66
2022-10-15T15:55:23.918Z,94629.66
2022-10-15T15:58:27.181Z,94624.19
2022-10-15T16:01:30.857Z,94630.75
2022-10-15T16:04:35.086Z,94633.31
2022-10-15T16:07:38.667Z,94639.53
2022-10-15T16:10:41.593Z,94639.88
2022-10-15T16:13:45.245Z,94638.41
2022-10-15T16:16:48.797Z,94642.03
2022-10-15T16:19:52.849Z,94644.56
2022-10-15T16:22:56.544Z,94643.78
2022-10-15T16:26:00.127Z,94652.19
2022-10-15T16:29:04.080Z,94651.44
2022-10-15T16:32:06.959Z,94652.16
2022-10-15T16:35:10.634Z,94658.75
2022-10-15T16:38:13.561Z,94657.66
2022-10-15T16:41:20.171Z,94660.56
2022-10-15T16:44:23.811Z,94659.41
2022-10-15T16:47:27.383Z,94668.53
2022-10-15T16:50:32.530Z,94672.94
2022-10-15T16:53:38.240Z,94669.31
2022-10-15T16:56:42.106Z,94671.44
2022-10-15T16:59:45.425Z,94675.06
2022-10-15T17:02:48.426Z,94676.50
2022-10-15T17:05:58.100Z,94680.13
2022-10-15T17:09:06.191Z,94680.50
2022-10-15T17:12:10.195Z,94688.84
2022-10-15T17:15:13.740Z,94689.56
2022-10-15T17:18:17.029Z,94694.28
2022-10-15T17:21:23.237Z,94693.88
2022-10-15T17:24:26.627Z,94699.31
2022-10-15T17:27:29.839Z,94703.75
2022-10-15T17:30:37.396Z,94707.78
2022-10-15T17:33:42.320Z,94709.25
2022-10-15T17:36:49.049Z,94710.31
2022-10-15T17:39:53.442Z,94710.66
2022-10-15T17:42:57.461Z,94714.97
2022-10-15T17:46:06.706Z,94724.88
2022-10-15T17:49:11.805Z,94723.44
2022-10-15T17:52:15.596Z,94728.22
2022-10-15T17:55:18.491Z,94734.75
2022-10-15T17:58:22.177Z,94732.19
2022-10-15T18:01:39.233Z,94737.22
2022-10-15T18:04:49.664Z,94740.41
2022-10-15T18:07:53.650Z,94737.44
2022-10-15T18:10:56.498Z,94747.19
2022-10-15T18:14:00.050Z,94740.94
2022-10-15T18:17:02.968Z,94742.03
2022-10-15T18:20:06.318Z,94747.13
2022-10-15T18:23:10.141Z,94754.03
2022-10-15T18:26:19.540Z,94753.22
2022-10-15T18:29:24.363Z,94750.22
2022-10-15T18:32:27.800Z,94752.78
2022-10-15T18:35:30.745Z,94755.66
2022-10-15T18:38:34.829Z,94753.41
2022-10-15T18:41:39.393Z,94747.91
2022-10-15T18:44:42.823Z,94758.47
2022-10-15T18:47:46.405Z,94756.25
2022-10-15T18:50:50.057Z,94756.91
2022-10-15T18:53:53.898Z,94762.00
2022-10-15T18:56:56.779Z,94761.94
2022-10-15T19:00:00.055Z,94758.59
2022-10-15T19:03:03.258Z,94766.53
2022-10-15T19:06:07.046Z,94774.19
2022-10-15T19:09:13.043Z,94774.53
2022-10-15T19:12:16.132Z,94771.25
2022-10-15T19:15:19.738Z,94772.38
2022-10-15T19:18:23.358Z,94780.81
2022-10-15T19:21:27.238Z,94778.97
2022-10-15T19:24:31.172Z,94775.56
2022-10-15T19:27:35.416Z,94783.19
2022-10-15T19:30:38.470Z,94795.16
2022-10-15T19:33:44.411Z,94784.88
2022-10-15T19:36:49.078Z,94793.94
2022-10-15T19:39:52.461Z,94793.50
2022-10-15T19:42:57.132Z,94795.66
2022-10-15T19:46:04.413Z,94790.81
2022-10-15T19:49:09.665Z,94800.28
2022-10-15T19:52:13.575Z,94813.00
2022-10-15T19:55:21.982Z,94817.25
2022-10-15T19:58:26.752Z,94817.53
2022-10-15T20:01:30.884Z,94822.63
2022-10-15T20:04:34.506Z,94821.09
2022-10-15T20:07:37.468Z,94828.75
2022-10-15T20:10:43.064Z,94833.38
2022-10-15T20:13:46.252Z,94833.69
2022-10-15T20:16:49.838Z,94835.41
2022-10-15T20:19:54.131Z,94835.28
2022-10-15T20:22:58.052Z,94838.84
2022-10-15T20:26:08.894Z,94837.34
2022-10-15T20:29:12.126Z,94840.56
2022-10-15T20:32:30.275Z,94841.38
2022-10-15T20:35:38.069Z,94845.66
2022-10-15T20:38:42.613Z,94850.31
2022-10-15T20:41:45.676Z,94856.13
2022-10-15T20:44:49.969Z,94865.59
2022-10-15T20:47:54.228Z,94864.13
2022-10-15T20:50:57.584Z,94872.44
2022-10-15T20:54:01.426Z,94876.06
2022-10-15T20:57:05.964Z,94871.69
2022-10-15T21:00:09.695Z,94879.59
2022-10-15T21:03:13.660Z,94878.78
2022-10-15T21:06:17.328Z,94887.09
2022-10-15T21:09:20.478Z,94887.75
2022-10-15T21:12:23.478Z,94891.03
2022-10-15T21:15:28.317Z,94894.66
2022-10-15T21:18:32.541Z,94896.13
2022-10-15T21:21:36.222Z,94895.81
2022-10-15T21:24:39.945Z,94896.53
2022-10-15T21:27:43.873Z,94902.22
2022-10-15T21:30:47.417Z,94905.38
2022-10-15T21:33:51.201Z,94903.56
2022-10-15T21:36:55.825Z,94910.13
2022-10-15T21:39:59.296Z,94907.84
2022-10-15T21:43:02.190Z,94915.41
2022-10-15T21:46:13.740Z,94922.63
2022-10-15T21:49:16.594Z,94926.16
2022-10-15T21:52:19.756Z,94924.59
2022-10-15T21:55:25.962Z,94928.97
2022-10-15T21:58:30.692Z,94936.88
2022-10-15T22:01:36.676Z,94936.47
2022-10-15T22:04:40.459Z,94941.41
2022-10-15T22:07:43.276Z,94944.19
2022-10-15T22:10:46.514Z,94959.78
2022-10-15T22:13:52.515Z,94960.44
2022-10-15T22:16:56.375Z,94962.34
2022-10-15T22:19:59.196Z,94968.81
2022-10-15T22:23:02.132Z,94970.94
2022-10-15T22:26:05.088Z,94973.41
2022-10-15T22:29:09.689Z,94977.75
2022-10-15T22:32:13.290Z,94977.69
2022-10-15T22:35:16.359Z,94981.63
2022-10-15T22:38:19.907Z,94982.03
2022-10-15T22:41:23.694Z,94978.44
2022-10-15T22:44:26.563Z,94986.13
2022-10-15T22:47:30.424Z,94984.97
2022-10-15T22:50:34.118Z,94989.50
2022-10-15T22:53:37.724Z,94998.50
2022-10-15T22:56:40.829Z,94987.91
2022-10-15T22:59:44.485Z,94996.53
2022-10-15T23:02:47.974Z,94995.13
2022-10-15T23:05:53.312Z,94998.94
2022-10-15T23:08:58.891Z,95003.47
2022-10-15T23:12:02.756Z,95002.13
2022-10-15T23:15:07.208Z,95000.09
2022-10-15T23:18:11.098Z,95008.25
2022-10-15T23:21:20.003Z,95003.25
2022-10-15T23:24:25.806Z,95014.81
2022-10-15T23:27:29.750Z,95016.28
2022-10-15T23:30:32.668Z,95016.94
2022-10-15T23:33:36.399Z,95019.81
2022-10-15T23:36:40.304Z,95020.22
2022-10-15T23:39:43.889Z,95029.09
2022-10-15T23:42:48.176Z,95032.91
2022-10-15T23:45:51.156Z,95033.97
2022-10-15T23:48:55.037Z,95037.72
2022-10-15T23:51:58.196Z,95031.91
2022-10-15T23:55:02.255Z,95039.06
2022-10-15T23:58:05.107Z,95037.31
